createdAt,value
2023-04-18T00:00:27.266Z,6.07
2023-04-18T00:02:55.078Z,5.90
2023-04-18T00:05:22.118Z,5.93
2023-04-18T00:07:48.786Z,5.68
2023-04-18T00:10:15.543Z,6.18
2023-04-18T00:12:42.939Z,5.82
2023-04-18T00:15:10.048Z,5.97
2023-04-18T00:17:38.527Z,6.15
2023-04-18T00:20:07.929Z,6.22
2023-04-18T00:22:34.371Z,6.00
2023-04-18T00:25:00.835Z,5.50
2023-04-18T00:27:27.369Z,5.22
2023-04-18T00:29:53.845Z,5.80
2023-04-18T00:32:20.327Z,5.32
2023-04-18T00:34:46.762Z,5.50
2023-04-18T00:37:13.219Z,5.57
2023-04-18T00:39:39.727Z,5.43
2023-04-18T00:42:06.463Z,5.60
2023-04-18T00:44:33.013Z,5.43
2023-04-18T00:46:59.441Z,5.32
2023-04-18T00:49:27.221Z,5.38
2023-04-18T00:51:55.925Z,5.32
2023-04-18T00:54:24.089Z,5.35
2023-04-18T00:56:50.675Z,5.40
2023-04-18T00:59:17.236Z,5.10
2023-04-18T01:01:45.159Z,5.97
2023-04-18T01:04:11.979Z,5.18
2023-04-18T01:06:39.194Z,5.05
2023-04-18T01:09:05.693Z,5.53
2023-04-18T01:11:32.401Z,5.25
2023-04-18T01:14:03.754Z,4.65
2023-04-18T01:16:32.881Z,5.00
2023-04-18T01:19:00.170Z,4.93
2023-04-18T01:21:26.918Z,5.45
2023-04-18T01:23:53.838Z,5.25
2023-04-18T01:26:20.317Z,5.10
2023-04-18T01:28:46.775Z,5.38
2023-04-18T01:31:13.246Z,5.13
2023-04-18T01:33:39.707Z,5.20
2023-04-18T01:36:06.313Z,4.70
2023-04-18T01:38:33.155Z,4.68
2023-04-18T01:40:59.593Z,4.90
2023-04-18T01:43:26.046Z,5.00
2023-04-18T01:45:52.496Z,5.05
2023-04-18T01:48:18.948Z,4.82
2023-04-18T01:50:45.474Z,5.00
2023-04-18T01:53:11.959Z,4.90
2023-04-18T01:55:38.388Z,5.20
2023-04-18T01:58:04.833Z,4.50
2023-04-18T02:00:31.329Z,4.78
2023-04-18T02:03:00.750Z,4.70
2023-04-18T02:05:27.406Z,4.68
2023-04-18T02:07:53.815Z,5.43
2023-04-18T02:10:21.180Z,5.07
2023-04-18T02:12:47.619Z,4.82
2023-04-18T02:15:14.182Z,4.70
2023-04-18T02:17:41.577Z,4.82
2023-04-18T02:20:09.227Z,4.82
2023-04-18T02:22:37.735Z,4.80
2023-04-18T02:25:04.397Z,5.00
2023-04-18T02:27:30.849Z,4.97
2023-04-18T02:29:57.310Z,4.72
2023-04-18T02:32:23.759Z,4.68
2023-04-18T02:34:50.277Z,5.10
2023-04-18T02:37:16.702Z,4.85
2023-04-18T02:39:43.137Z,4.80
2023-04-18T02:42:09.574Z,4.82
2023-04-18T02:44:35.987Z,4.60
2023-04-18T02:47:02.459Z,5.10
2023-04-18T02:49:28.881Z,4.50
2023-04-18T02:51:58.199Z,4.60
2023-04-18T02:54:24.905Z,4.50
2023-04-18T02:56:55.330Z,4.90
2023-04-18T02:59:21.773Z,5.05
2023-04-18T03:01:48.377Z,4.70
2023-04-18T03:04:14.994Z,4.63
2023-04-18T03:06:41.759Z,4.65
2023-04-18T03:09:08.328Z,4.80
2023-04-18T03:11:34.790Z,4.70
2023-04-18T03:14:01.232Z,5.05
2023-04-18T03:16:27.812Z,5.03
2023-04-18T03:18:54.226Z,4.47
2023-04-18T03:21:20.768Z,4.70
2023-04-18T03:23:47.297Z,5.32
2023-04-18T03:26:13.996Z,5.00
2023-04-18T03:28:40.840Z,4.60
2023-04-18T03:31:07.348Z,4.80
2023-04-18T03:33:33.843Z,4.50
2023-04-18T03:36:00.285Z,4.68
2023-04-18T03:38:26.744Z,4.93
2023-04-18T03:40:53.904Z,5.00
2023-04-18T03:43:21.105Z,5.20
2023-04-18T03:45:47.837Z,4.63
2023-04-18T03:48:14.686Z,4.80
2023-04-18T03:50:41.336Z,4.82
2023-04-18T03:53:07.815Z,4.85
2023-04-18T03:55:34.342Z,4.50
2023-04-18T03:58:01.082Z,4.72
2023-04-18T04:00:27.523Z,4.47
2023-04-18T04:02:54.210Z,4.15
2023-04-18T04:05:20.899Z,4.88
2023-04-18T04:07:47.348Z,5.10
2023-04-18T04:10:13.836Z,4.25
2023-04-18T04:12:40.539Z,4.63
2023-04-18T04:15:07.327Z,4.15
2023-04-18T04:17:33.773Z,4.90
2023-04-18T04:20:00.265Z,4.43
2023-04-18T04:22:27.317Z,4.82
2023-04-18T04:24:53.764Z,4.72
2023-04-18T04:27:20.543Z,4.78
2023-04-18T04:29:47.356Z,4.78
2023-04-18T04:32:13.845Z,4.82
2023-04-18T04:34:41.489Z,4.60
2023-04-18T04:37:08.269Z,4.55
2023-04-18T04:39:34.722Z,4.30
2023-04-18T04:42:04.480Z,4.72
2023-04-18T04:44:31.358Z,4.32
2023-04-18T04:46:57.857Z,4.53
2023-04-18T04:49:24.394Z,4.63
2023-04-18T04:51:50.926Z,4.70
2023-04-18T04:54:17.349Z,4.30
2023-04-18T04:56:43.821Z,4.70
2023-04-18T04:59:10.241Z,5.18
2023-04-18T05:01:36.851Z,4.53
2023-04-18T05:04:03.975Z,4.90
2023-04-18T05:06:31.190Z,5.00
2023-04-18T05:08:59.589Z,5.03
2023-04-18T05:11:26.290Z,4.82
2023-04-18T05:13:52.693Z,4.53
2023-04-18T05:16:19.209Z,5.10
2023-04-18T05:18:45.913Z,4.95
2023-04-18T05:21:12.344Z,4.80
2023-04-18T05:23:39.699Z,5.03
2023-04-18T05:26:06.775Z,4.97
2023-04-18T05:28:33.242Z,5.18
2023-04-18T05:31:02.440Z,5.22
2023-04-18T05:33:29.422Z,4.82
2023-04-18T05:35:56.423Z,4.90
2023-04-18T05:38:22.893Z,5.63
2023-04-18T05:40:51.186Z,5.82
2023-04-18T05:43:20.727Z,5.57
2023-04-18T05:45:47.483Z,5.20
2023-04-18T05:48:14.308Z,5.40
2023-04-18T05:50:40.778Z,5.28
2023-04-18T05:53:07.210Z,5.47
2023-04-18T05:55:34.438Z,5.20
2023-04-18T05:58:01.083Z,5.10
2023-04-18T06:00:28.218Z,5.13
2023-04-18T06:02:54.790Z,5.00
2023-04-18T06:05:21.535Z,5.88
2023-04-18T06:07:48.242Z,5.40
2023-04-18T06:10:15.786Z,5.22
2023-04-18T06:12:42.561Z,4.93
2023-04-18T06:15:09.919Z,5.45
2023-04-18T06:17:36.435Z,5.53
2023-04-18T06:20:04.816Z,5.28
2023-04-18T06:22:31.314Z,5.28
2023-04-18T06:24:57.822Z,5.50
2023-04-18T06:27:31.414Z,4.90
2023-04-18T06:29:58.573Z,4.72
2023-04-18T06:32:25.397Z,5.03
2023-04-18T06:34:53.037Z,5.22
2023-04-18T06:37:19.841Z,4.90
2023-04-18T06:39:46.496Z,4.80
2023-04-18T06:42:12.993Z,4.60
2023-04-18T06:44:39.591Z,4.72
2023-04-18T06:47:06.110Z,4.43
2023-04-18T06:49:32.512Z,4.82
2023-04-18T06:51:59.042Z,4.70
2023-04-18T06:54:28.208Z,4.70
2023-04-18T06:56:54.706Z,5.05
2023-04-18T06:59:21.651Z,4.80
2023-04-18T07:01:48.147Z,4.63
2023-04-18T07:04:14.854Z,4.80
2023-04-18T07:06:42.372Z,4.88
2023-04-18T07:09:08.807Z,4.68
2023-04-18T07:11:35.355Z,4.97
2023-04-18T07:14:01.824Z,4.57
2023-04-18T07:16:28.240Z,5.00
2023-04-18T07:18:54.655Z,4.88
2023-04-18T07:21:21.117Z,4.35
2023-04-18T07:23:47.532Z,4.35
2023-04-18T07:26:14.020Z,4.32
2023-04-18T07:28:40.563Z,4.65
2023-04-18T07:31:11.133Z,4.60
2023-04-18T07:33:38.775Z,4.18
2023-04-18T07:36:06.062Z,4.00
2023-04-18T07:38:34.740Z,4.22
2023-04-18T07:41:02.729Z,4.30
2023-04-18T07:43:29.371Z,3.95
2023-04-18T07:45:56.024Z,3.92
2023-04-18T07:48:22.754Z,4.22
2023-04-18T07:50:49.496Z,4.15
2023-04-18T07:53:16.255Z,3.92
2023-04-18T07:55:43.385Z,4.05
2023-04-18T07:58:10.188Z,3.88
2023-04-18T08:00:39.204Z,3.47
2023-04-18T08:03:07.620Z,4.00
2023-04-18T08:05:34.375Z,3.90
2023-04-18T08:08:00.928Z,4.00
2023-04-18T08:10:27.494Z,3.95
2023-04-18T08:12:54.024Z,3.75
2023-04-18T08:15:20.586Z,3.85
2023-04-18T08:17:49.127Z,3.80
2023-04-18T08:20:15.743Z,3.80
2023-04-18T08:22:57.780Z,3.38
2023-04-18T08:25:29.007Z,3.67
2023-04-18T08:27:55.935Z,3.40
2023-04-18T08:30:22.370Z,4.22
2023-04-18T08:32:49.591Z,4.28
2023-04-18T08:35:16.436Z,3.88
2023-04-18T08:37:43.461Z,3.97
2023-04-18T08:40:10.108Z,3.70
2023-04-18T08:42:38.382Z,3.38
2023-04-18T08:45:06.898Z,3.30
2023-04-18T08:47:35.226Z,3.42
2023-04-18T08:50:02.240Z,3.20
2023-04-18T08:52:30.797Z,3.60
2023-04-18T08:54:57.443Z,3.55
2023-04-18T08:57:26.858Z,3.22
2023-04-18T08:59:54.024Z,3.45
2023-04-18T09:02:24.056Z,3.30
2023-04-18T09:04:53.441Z,3.40
2023-04-18T09:07:28.460Z,3.50
2023-04-18T09:09:59.854Z,3.47
2023-04-18T09:12:28.098Z,3.40
2023-04-18T09:14:57.864Z,3.17
2023-04-18T09:17:31.758Z,3.15
2023-04-18T09:19:59.872Z,3.38
2023-04-18T09:22:26.455Z,2.92
2023-04-18T09:24:57.464Z,3.13
2023-04-18T09:27:24.480Z,2.90
2023-04-18T09:29:55.287Z,2.83
2023-04-18T09:32:29.262Z,3.08
2023-04-18T09:35:03.950Z,2.67
2023-04-18T09:37:30.982Z,2.90
2023-04-18T09:39:57.525Z,2.80
2023-04-18T09:42:25.057Z,2.67
2023-04-18T09:45:07.000Z,2.60
2023-04-18T09:47:35.247Z,2.88
2023-04-18T09:50:09.872Z,2.80
2023-04-18T09:52:38.119Z,2.78
2023-04-18T09:55:10.026Z,2.65
2023-04-18T09:57:40.937Z,2.42
2023-04-18T10:00:14.381Z,2.72
2023-04-18T10:02:48.591Z,2.70
2023-04-18T10:05:15.719Z,2.85
2023-04-18T10:07:44.509Z,2.80
2023-04-18T10:10:11.184Z,2.90
2023-04-18T10:12:38.520Z,2.63
2023-04-18T10:15:06.815Z,2.67
2023-04-18T10:18:04.357Z,2.30
2023-04-18T10:20:33.018Z,2.30
2023-04-18T10:23:00.585Z,2.33
2023-04-18T10:25:39.448Z,2.70
2023-04-18T10:28:07.194Z,2.50
2023-04-18T10:30:42.279Z,2.60
2023-04-18T10:33:31.161Z,2.30
2023-04-18T10:36:12.283Z,2.30
2023-04-18T10:38:46.315Z,2.35
2023-04-18T10:41:26.266Z,2.15
2023-04-18T10:44:18.026Z,2.40
2023-04-18T10:46:53.450Z,2.40
2023-04-18T10:49:26.865Z,2.47
2023-04-18T10:51:56.293Z,2.17
2023-04-18T10:54:32.266Z,2.30
2023-04-18T10:57:04.361Z,2.05
2023-04-18T10:59:32.471Z,1.92
2023-04-18T11:02:07.772Z,2.13
2023-04-18T11:04:34.424Z,2.05
2023-04-18T11:07:01.549Z,2.30
2023-04-18T11:09:28.020Z,2.13
2023-04-18T11:12:06.524Z,2.22
2023-04-18T11:14:46.555Z,2.08
2023-04-18T11:17:24.510Z,1.77
2023-04-18T11:19:59.171Z,2.20
2023-04-18T11:22:25.892Z,2.00
2023-04-18T11:24:53.024Z,2.20
2023-04-18T11:27:25.765Z,1.90
2023-04-18T11:29:57.503Z,2.25
2023-04-18T11:32:24.435Z,2.17
2023-04-18T11:34:54.727Z,2.15
2023-04-18T11:37:21.713Z,2.10
2023-04-18T11:39:48.192Z,2.22
2023-04-18T11:42:14.891Z,2.10
2023-04-18T11:44:46.219Z,2.42
2023-04-18T11:47:29.621Z,2.38
2023-04-18T11:50:03.934Z,2.08
2023-04-18T11:52:31.822Z,2.50
2023-04-18T11:55:13.051Z,2.22
2023-04-18T11:57:40.844Z,2.10
2023-04-18T12:00:09.080Z,2.10
2023-04-18T12:02:40.139Z,2.45
2023-04-18T12:05:07.186Z,2.40
2023-04-18T12:07:36.391Z,2.10
2023-04-18T12:10:05.009Z,2.10
2023-04-18T12:12:31.567Z,2.17
2023-04-18T12:15:09.165Z,2.00
2023-04-18T12:17:38.138Z,2.00
2023-04-18T12:20:06.528Z,2.00
2023-04-18T12:22:49.561Z,2.67
2023-04-18T12:25:29.067Z,2.40
2023-04-18T12:28:15.070Z,2.20
2023-04-18T12:30:42.258Z,2.45
2023-04-18T12:33:09.275Z,2.28
2023-04-18T12:35:36.123Z,2.70
2023-04-18T12:38:02.955Z,2.40
2023-04-18T12:40:30.269Z,2.45
2023-04-18T12:42:56.947Z,2.38
2023-04-18T12:45:24.066Z,2.13
2023-04-18T12:47:52.135Z,2.50
2023-04-18T12:50:23.793Z,2.42
2023-04-18T12:52:55.660Z,2.70
2023-04-18T12:55:22.838Z,2.85
2023-04-18T12:57:52.192Z,2.45
2023-04-18T13:00:18.694Z,2.50
2023-04-18T13:02:45.981Z,2.60
2023-04-18T13:05:14.863Z,2.63
2023-04-18T13:07:42.612Z,2.83
2023-04-18T13:10:11.848Z,2.25
2023-04-18T13:12:39.699Z,2.40
2023-04-18T13:15:07.349Z,2.70
2023-04-18T13:17:36.396Z,2.67
2023-04-18T13:20:07.310Z,2.88
2023-04-18T13:22:34.127Z,2.85
2023-04-18T13:25:00.569Z,2.65
2023-04-18T13:27:27.114Z,2.65
2023-04-18T13:29:53.621Z,2.53
2023-04-18T13:32:20.142Z,2.40
2023-04-18T13:34:47.737Z,3.00
2023-04-18T13:37:15.117Z,2.72
2023-04-18T13:39:41.924Z,2.60
2023-04-18T13:42:09.969Z,2.72
2023-04-18T13:44:37.460Z,3.08
2023-04-18T13:47:05.475Z,2.63
2023-04-18T13:49:32.976Z,2.78
2023-04-18T13:51:59.626Z,2.72
2023-04-18T13:54:30.941Z,2.80
2023-04-18T13:56:59.442Z,2.90
2023-04-18T13:59:26.480Z,2.90
2023-04-18T14:01:54.302Z,2.80
2023-04-18T14:04:22.120Z,2.60
2023-04-18T14:06:49.262Z,2.78
2023-04-18T14:09:16.691Z,2.80
2023-04-18T14:11:43.413Z,2.90
2023-04-18T14:14:09.974Z,2.95
2023-04-18T14:16:36.596Z,2.60
2023-04-18T14:19:03.085Z,2.97
2023-04-18T14:21:29.729Z,2.85
2023-04-18T14:23:56.319Z,2.70
2023-04-18T14:26:23.021Z,3.20
2023-04-18T14:28:49.515Z,3.05
2023-04-18T14:31:16.276Z,3.15
2023-04-18T14:33:43.189Z,2.70
2023-04-18T14:36:09.844Z,3.08
2023-04-18T14:38:36.668Z,3.28
2023-04-18T14:41:06.300Z,3.40
2023-04-18T14:43:32.786Z,3.10
2023-04-18T14:45:59.880Z,2.97
2023-04-18T14:48:27.046Z,3.20
2023-04-18T14:51:02.391Z,2.80
2023-04-18T14:53:28.876Z,3.00
2023-04-18T14:55:56.097Z,2.78
2023-04-18T14:58:22.574Z,3.33
2023-04-18T15:00:49.236Z,3.17
2023-04-18T15:03:16.444Z,2.97
2023-04-18T15:05:46.405Z,3.17
2023-04-18T15:08:14.545Z,3.00
2023-04-18T15:10:42.543Z,3.05
2023-04-18T15:13:09.818Z,2.92
2023-04-18T15:15:37.742Z,2.80
2023-04-18T15:18:04.528Z,2.90
2023-04-18T15:20:31.329Z,3.10
2023-04-18T15:22:59.047Z,3.25
2023-04-18T15:25:26.264Z,3.30
2023-04-18T15:27:53.090Z,3.33
2023-04-18T15:30:19.647Z,2.70
2023-04-18T15:32:46.169Z,3.00
2023-04-18T15:35:12.898Z,2.88
2023-04-18T15:37:39.416Z,3.20
2023-04-18T15:40:09.208Z,3.10
2023-04-18T15:42:35.925Z,2.70
2023-04-18T15:45:04.481Z,3.00
2023-04-18T15:47:33.680Z,2.70
2023-04-18T15:50:00.376Z,3.53
2023-04-18T15:52:26.830Z,2.90
2023-04-18T15:54:54.465Z,3.22
2023-04-18T15:57:21.814Z,2.60
2023-04-18T15:59:48.261Z,2.67
2023-04-18T16:02:15.023Z,3.10
2023-04-18T16:04:41.553Z,2.80
2023-04-18T16:07:08.843Z,2.75
2023-04-18T16:09:35.308Z,3.00
2023-04-18T16:12:03.281Z,2.85
2023-04-18T16:14:31.212Z,3.05
2023-04-18T16:16:58.710Z,2.80
2023-04-18T16:19:25.349Z,3.10
2023-04-18T16:21:51.997Z,3.45
2023-04-18T16:24:18.781Z,3.10
2023-04-18T16:26:45.294Z,2.92
2023-04-18T16:29:11.713Z,2.70
2023-04-18T16:31:38.408Z,3.13
2023-04-18T16:34:04.896Z,3.28
2023-04-18T16:36:34.271Z,2.80
2023-04-18T16:39:00.819Z,3.22
2023-04-18T16:41:27.286Z,3.10
2023-04-18T16:43:54.660Z,3.33
2023-04-18T16:46:21.117Z,3.05
2023-04-18T16:48:48.624Z,3.10
2023-04-18T16:51:15.829Z,2.85
2023-04-18T16:53:42.352Z,2.90
2023-04-18T16:56:09.023Z,3.00
2023-04-18T16:58:35.462Z,3.13
2023-04-18T17:01:02.309Z,2.88
2023-04-18T17:03:28.930Z,3.00
2023-04-18T17:05:55.900Z,2.75
2023-04-18T17:08:22.347Z,3.00
2023-04-18T17:10:51.981Z,3.22
2023-04-18T17:13:18.537Z,2.80
2023-04-18T17:15:45.073Z,2.92
2023-04-18T17:18:11.890Z,2.83
2023-04-18T17:20:38.486Z,3.08
2023-04-18T17:23:04.924Z,2.80
2023-04-18T17:25:31.870Z,2.90
2023-04-18T17:27:58.646Z,3.20
2023-04-18T17:30:25.152Z,3.00
2023-04-18T17:32:51.654Z,3.10
2023-04-18T17:35:18.242Z,2.67
2023-04-18T17:37:44.679Z,3.17
2023-04-18T17:40:11.948Z,2.80
2023-04-18T17:42:38.769Z,3.20
2023-04-18T17:45:07.567Z,3.05
2023-04-18T17:47:34.917Z,3.05
2023-04-18T17:50:01.417Z,2.92
2023-04-18T17:52:31.199Z,3.00
2023-04-18T17:55:04.165Z,2.88
2023-04-18T17:57:32.945Z,3.30
2023-04-18T17:59:59.336Z,2.97
2023-04-18T18:02:28.075Z,3.10
2023-04-18T18:04:54.679Z,2.97
2023-04-18T18:07:21.253Z,2.92
2023-04-18T18:09:47.756Z,2.78
2023-04-18T18:12:14.218Z,2.97
2023-04-18T18:14:40.631Z,3.38
2023-04-18T18:17:07.265Z,2.90
2023-04-18T18:19:36.659Z,2.80
2023-04-18T18:22:03.154Z,2.90
2023-04-18T18:24:29.887Z,2.72
2023-04-18T18:26:56.850Z,3.25
2023-04-18T18:29:23.488Z,2.83
2023-04-18T18:31:50.137Z,3.15
2023-04-18T18:34:16.965Z,3.20
2023-04-18T18:36:43.430Z,2.70
2023-04-18T18:39:11.149Z,2.97
2023-04-18T18:41:37.679Z,3.00
2023-04-18T18:44:04.235Z,2.58
2023-04-18T18:46:31.039Z,3.03
2023-04-18T18:48:57.651Z,2.80
2023-04-18T18:51:24.123Z,3.20
2023-04-18T18:53:50.552Z,3.10
2023-04-18T18:56:17.044Z,3.05
2023-04-18T18:58:43.858Z,2.85
2023-04-18T19:01:11.540Z,2.83
2023-04-18T19:03:38.208Z,2.75
2023-04-18T19:06:07.033Z,2.80
2023-04-18T19:08:33.850Z,2.80
2023-04-18T19:11:00.336Z,2.97
2023-04-18T19:13:26.820Z,3.15
2023-04-18T19:15:53.365Z,2.90
2023-04-18T19:18:20.272Z,2.85
2023-04-18T19:20:47.077Z,2.80
2023-04-18T19:23:13.568Z,2.88
2023-04-18T19:25:40.075Z,2.95
2023-04-18T19:28:06.767Z,2.90
2023-04-18T19:30:33.323Z,2.95
2023-04-18T19:33:00.016Z,2.83
2023-04-18T19:35:26.496Z,2.80
2023-04-18T19:37:55.831Z,3.00
2023-04-18T19:40:23.717Z,2.90
2023-04-18T19:42:50.177Z,2.88
2023-04-18T19:45:16.648Z,2.92
2023-04-18T19:47:44.336Z,2.90
2023-04-18T19:50:11.523Z,3.00
2023-04-18T19:52:37.968Z,2.80
2023-04-18T19:55:05.073Z,2.58
2023-04-18T19:57:31.726Z,2.90
2023-04-18T19:59:58.138Z,2.50
2023-04-18T20:02:24.706Z,2.83
2023-04-18T20:04:51.480Z,2.75
2023-04-18T20:07:18.058Z,2.75
2023-04-18T20:09:44.529Z,2.88
2023-04-18T20:12:10.951Z,2.65
2023-04-18T20:14:37.414Z,2.97
2023-04-18T20:17:03.835Z,2.40
2023-04-18T20:19:30.279Z,2.80
2023-04-18T20:21:56.965Z,2.75
2023-04-18T20:24:23.836Z,2.90
2023-04-18T20:26:51.400Z,2.50
2023-04-18T20:29:17.817Z,2.90
2023-04-18T20:31:44.277Z,2.75
2023-04-18T20:34:10.997Z,2.75
2023-04-18T20:36:41.492Z,2.47
2023-04-18T20:39:12.293Z,2.47
2023-04-18T20:41:46.599Z,2.67
2023-04-18T20:44:13.798Z,2.50
2023-04-18T20:46:41.222Z,2.53
2023-04-18T20:49:08.766Z,2.63
2023-04-18T20:51:37.052Z,2.42
2023-04-18T20:54:04.374Z,2.65
2023-04-18T20:56:31.958Z,2.40
2023-04-18T20:58:58.374Z,2.55
2023-04-18T21:01:25.100Z,2.58
2023-04-18T21:03:51.729Z,2.85
2023-04-18T21:06:19.181Z,2.60
2023-04-18T21:08:45.819Z,2.72
2023-04-18T21:11:12.280Z,2.85
2023-04-18T21:13:38.738Z,2.78
2023-04-18T21:16:07.988Z,2.63
2023-04-18T21:18:34.480Z,2.40
2023-04-18T21:21:00.957Z,2.80
2023-04-18T21:23:27.399Z,2.30
2023-04-18T21:25:53.898Z,2.60
2023-04-18T21:28:20.550Z,2.40
2023-04-18T21:30:47.131Z,2.63
2023-04-18T21:33:13.974Z,2.50
2023-04-18T21:35:40.450Z,2.30
2023-04-18T21:38:06.925Z,2.70
2023-04-18T21:40:33.397Z,2.47
2023-04-18T21:42:59.854Z,2.63
2023-04-18T21:45:26.441Z,2.25
2023-04-18T21:47:53.012Z,2.45
2023-04-18T21:50:19.735Z,2.63
2023-04-18T21:52:46.158Z,2.30
2023-04-18T21:55:12.641Z,2.38
2023-04-18T21:57:39.068Z,2.65
2023-04-18T22:00:08.452Z,2.60
2023-04-18T22:02:36.609Z,2.50
2023-04-18T22:05:03.246Z,2.50
2023-04-18T22:07:31.028Z,2.60
2023-04-18T22:09:59.684Z,2.60
2023-04-18T22:12:26.464Z,2.50
2023-04-18T22:14:53.013Z,2.22
2023-04-18T22:17:20.937Z,2.45
2023-04-18T22:19:49.748Z,2.30
2023-04-18T22:22:16.500Z,2.28
2023-04-18T22:24:43.980Z,2.70
2023-04-18T22:27:11.465Z,2.30
2023-04-18T22:29:37.878Z,2.60
2023-04-18T22:32:04.461Z,2.28
2023-04-18T22:34:30.953Z,2.60
2023-04-18T22:36:57.368Z,2.80
2023-04-18T22:39:24.651Z,2.60
2023-04-18T22:41:51.114Z,2.75
2023-04-18T22:44:17.656Z,2.40
2023-04-18T22:46:44.722Z,2.33
2023-04-18T22:49:11.333Z,2.55
2023-04-18T22:51:38.194Z,2.42
2023-04-18T22:54:05.042Z,2.15
2023-04-18T22:56:31.530Z,2.35
2023-04-18T22:58:57.930Z,2.25
2023-04-18T23:01:24.534Z,2.30
2023-04-18T23:03:51.126Z,2.33
2023-04-18T23:06:17.617Z,2.53
2023-04-18T23:08:44.125Z,2.40
2023-04-18T23:11:11.196Z,2.63
2023-04-18T23:13:37.694Z,2.60
2023-04-18T23:16:04.469Z,2.55
2023-04-18T23:18:31.014Z,2.25
2023-04-18T23:20:57.454Z,2.50
2023-04-18T23:23:24.039Z,2.30
2023-04-18T23:25:50.439Z,2.50
2023-04-18T23:28:17.199Z,2.38
2023-04-18T23:30:43.812Z,2.70
2023-04-18T23:33:10.456Z,2.60
2023-04-18T23:35:36.981Z,2.42
2023-04-18T23:38:03.514Z,2.22
2023-04-18T23:40:30.205Z,2.40
2023-04-18T23:42:57.102Z,2.60
2023-04-18T23:45:24.572Z,2.45
2023-04-18T23:47:51.907Z,2.53
2023-04-18T23:50:18.365Z,2.30
2023-04-18T23:52:44.799Z,2.40
2023-04-18T23:55:11.298Z,2.25
2023-04-18T23:57:37.715Z,2.30
